sensor_id;sensor_type;location;lat;lon;timestamp;pressure;altitude;pressure_sealevel;temperature;humidity
33404;BME280;19751;40.274;18.268;2024-03-29T00:02:03;101227.56;;;14.86;100.00
33404;BME280;19751;40.274;18.268;2024-03-29T00:04:29;101244.91;;;14.85;100.00
33404;BME280;19751;40.274;18.268;2024-03-29T00:06:54;101248.22;;;14.87;100.00
33404;BME280;19751;40.274;18.268;2024-03-29T00:09:20;101252.41;;;14.89;100.00
33404;BME280;19751;40.274;18.268;2024-03-29T00:11:46;101243.84;;;14.92;100.00
33404;BME280;19751;40.274;18.268;2024-03-29T00:14:11;101233.84;;;14.93;100.00
33404;BME280;19751;40.274;18.268;2024-03-29T00:16:36;101240.94;;;14.94;100.00
33404;BME280;19751;40.274;18.268;2024-03-29T00:19:02;101242.59;;;14.95;100.00
33404;BME280;19751;40.274;18.268;2024-03-29T00:21:28;101250.75;;;14.95;100.00
33404;BME280;19751;40.274;18.268;2024-03-29T00:23:53;101239.69;;;14.97;100.00
33404;BME280;19751;40.274;18.268;2024-03-29T00:26:19;101240.72;;;14.96;100.00
33404;BME280;19751;40.274;18.268;2024-03-29T00:28:44;101244.50;;;14.95;100.00
33404;BME280;19751;40.274;18.268;2024-03-29T00:31:09;101254.91;;;14.91;100.00
33404;BME280;19751;40.274;18.268;2024-03-29T00:33:35;101260.13;;;14.86;100.00
33404;BME280;19751;40.274;18.268;2024-03-29T00:36:01;101259.91;;;14.87;100.00
33404;BME280;19751;40.274;18.268;2024-03-29T00:38:26;101250.72;;;14.88;100.00
33404;BME280;19751;40.274;18.268;2024-03-29T00:40:52;101240.09;;;14.87;100.00
33404;BME280;19751;40.274;18.268;2024-03-29T00:43:18;101241.53;;;14.83;100.00
33404;BME280;19751;40.274;18.268;2024-03-29T00:45:44;101234.63;;;14.80;100.00
33404;BME280;19751;40.274;18.268;2024-03-29T00:48:09;101247.78;;;14.77;100.00
33404;BME280;19751;40.274;18.268;2024-03-29T00:50:35;101263.63;;;14.73;100.00
33404;BME280;19751;40.274;18.268;2024-03-29T00:53:04;101278.63;;;14.69;100.00
33404;BME280;19751;40.274;18.268;2024-03-29T00:55:29;101280.50;;;14.69;100.00
33404;BME280;19751;40.274;18.268;2024-03-29T00:57:55;101284.06;;;14.69;100.00
33404;BME280;19751;40.274;18.268;2024-03-29T01:00:21;101270.91;;;14.66;100.00
33404;BME280;19751;40.274;18.268;2024-03-29T01:02:46;101269.03;;;14.66;100.00
33404;BME280;19751;40.274;18.268;2024-03-29T01:05:12;101261.09;;;14.65;100.00
33404;BME280;19751;40.274;18.268;2024-03-29T01:07:40;101263.81;;;14.65;100.00
33404;BME280;19751;40.274;18.268;2024-03-29T01:10:07;101286.13;;;14.67;100.00
33404;BME280;19751;40.274;18.268;2024-03-29T01:12:34;101281.13;;;14.64;100.00
33404;BME280;19751;40.274;18.268;2024-03-29T01:15:00;101284.41;;;14.53;100.00
33404;BME280;19751;40.274;18.268;2024-03-29T01:17:25;101275.84;;;14.49;100.00
33404;BME280;19751;40.274;18.268;2024-03-29T01:19:51;101279.00;;;14.53;100.00
33404;BME280;19751;40.274;18.268;2024-03-29T01:22:16;101263.56;;;14.53;100.00
33404;BME280;19751;40.274;18.268;2024-03-29T01:24:42;101274.84;;;14.57;100.00
33404;BME280;19751;40.274;18.268;2024-03-29T01:27:07;101266.09;;;14.61;100.00
33404;BME280;19751;40.274;18.268;2024-03-29T01:29:33;101266.31;;;14.60;100.00
33404;BME280;19751;40.274;18.268;2024-03-29T01:31:58;101269.41;;;14.57;100.00
33404;BME280;19751;40.274;18.268;2024-03-29T01:34:24;101266.47;;;14.52;100.00
33404;BME280;19751;40.274;18.268;2024-03-29T01:36:49;101271.03;;;14.51;100.00
33404;BME280;19751;40.274;18.268;2024-03-29T01:39:15;101277.94;;;14.54;100.00
33404;BME280;19751;40.274;18.268;2024-03-29T01:41:44;101274.00;;;14.56;100.00
33404;BME280;19751;40.274;18.268;2024-03-29T01:44:09;101290.06;;;14.58;100.00
33404;BME280;19751;40.274;18.268;2024-03-29T01:46:36;101280.66;;;14.54;100.00
33404;BME280;19751;40.274;18.268;2024-03-29T01:49:03;101278.34;;;14.51;100.00
33404;BME280;19751;40.274;18.268;2024-03-29T01:51:30;101278.56;;;14.49;100.00
33404;BME280;19751;40.274;18.268;2024-03-29T01:53:57;101278.56;;;14.49;100.00
33404;BME280;19751;40.274;18.268;2024-03-29T01:56:24;101272.31;;;14.49;100.00
33404;BME280;19751;40.274;18.268;2024-03-29T01:58:52;101273.97;;;14.50;100.00
33404;BME280;19751;40.274;18.268;2024-03-29T02:01:19;101277.31;;;14.52;100.00
33404;BME280;19751;40.274;18.268;2024-03-29T02:03:47;101271.47;;;14.55;100.00
33404;BME280;19751;40.274;18.268;2024-03-29T02:06:13;101267.31;;;14.59;100.00
33404;BME280;19751;40.274;18.268;2024-03-29T02:08:39;101277.13;;;14.53;100.00
33404;BME280;19751;40.274;18.268;2024-03-29T02:11:04;101271.84;;;14.45;100.00
33404;BME280;19751;40.274;18.268;2024-03-29T02:13:31;101280.19;;;14.43;100.00
33404;BME280;19751;40.274;18.268;2024-03-29T02:15:57;101276.59;;;14.43;100.00
33404;BME280;19751;40.274;18.268;2024-03-29T02:18:23;101274.53;;;14.45;100.00
33404;BME280;19751;40.274;18.268;2024-03-29T02:20:49;101277.72;;;14.49;100.00
33404;BME280;19751;40.274;18.268;2024-03-29T02:23:27;101275.44;;;14.52;100.00
33404;BME280;19751;40.274;18.268;2024-03-29T02:25:56;101284.19;;;14.54;100.00
33404;BME280;19751;40.274;18.268;2024-03-29T02:28:25;101296.72;;;14.55;100.00
33404;BME280;19751;40.274;18.268;2024-03-29T02:30:51;101303.19;;;14.54;100.00
33404;BME280;19751;40.274;18.268;2024-03-29T02:33:16;101309.66;;;14.53;100.00
33404;BME280;19751;40.274;18.268;2024-03-29T02:35:42;101320.03;;;14.50;100.00
33404;BME280;19751;40.274;18.268;2024-03-29T02:38:07;101308.72;;;14.46;100.00
33404;BME280;19751;40.274;18.268;2024-03-29T02:40:33;101288.06;;;14.38;100.00
33404;BME280;19751;40.274;18.268;2024-03-29T02:42:58;101282.22;;;14.35;100.00
33404;BME280;19751;40.274;18.268;2024-03-29T02:45:24;101284.72;;;14.36;100.00
33404;BME280;19751;40.274;18.268;2024-03-29T02:47:49;101284.06;;;14.34;100.00
33404;BME280;19751;40.274;18.268;2024-03-29T02:50:16;101291.81;;;14.37;100.00
33404;BME280;19751;40.274;18.268;2024-03-29T02:52:41;101292.47;;;14.39;100.00
33404;BME280;19751;40.274;18.268;2024-03-29T02:55:08;101294.75;;;14.42;100.00
33404;BME280;19751;40.274;18.268;2024-03-29T02:57:36;101285.38;;;14.45;100.00
33404;BME280;19751;40.274;18.268;2024-03-29T03:00:02;101280.78;;;14.46;100.00
33404;BME280;19751;40.274;18.268;2024-03-29T03:02:28;101275.34;;;14.39;100.00
33404;BME280;19751;40.274;18.268;2024-03-29T03:04:54;101278.91;;;14.39;100.00
33404;BME280;19751;40.274;18.268;2024-03-29T03:07:19;101264.47;;;14.32;100.00
33404;BME280;19751;40.274;18.268;2024-03-29T03:10:04;101261.97;;;14.31;100.00
33404;BME280;19751;40.274;18.268;2024-03-29T03:12:48;101273.22;;;14.28;100.00
33404;BME280;19751;40.274;18.268;2024-03-29T03:15:13;101286.56;;;14.29;100.00
33404;BME280;19751;40.274;18.268;2024-03-29T03:17:39;101290.94;;;14.30;100.00
33404;BME280;19751;40.274;18.268;2024-03-29T03:20:05;101290.75;;;14.32;100.00
33404;BME280;19751;40.274;18.268;2024-03-29T03:22:32;101288.25;;;14.37;100.00
33404;BME280;19751;40.274;18.268;2024-03-29T03:24:57;101287.22;;;14.38;100.00
33404;BME280;19751;40.274;18.268;2024-03-29T03:27:23;101288.88;;;14.39;100.00
33404;BME280;19751;40.274;18.268;2024-03-29T03:29:49;101300.38;;;14.41;100.00
33404;BME280;19751;40.274;18.268;2024-03-29T03:32:14;101302.25;;;14.40;100.00
33404;BME280;19751;40.274;18.268;2024-03-29T03:34:40;101300.59;;;14.39;100.00
33404;BME280;19751;40.274;18.268;2024-03-29T03:37:05;101312.44;;;14.38;100.00
33404;BME280;19751;40.274;18.268;2024-03-29T03:39:31;101318.28;;;14.35;100.00
33404;BME280;19751;40.274;18.268;2024-03-29T03:41:56;101317.47;;;14.35;100.00
33404;BME280;19751;40.274;18.268;2024-03-29T03:44:22;101305.53;;;14.29;100.00
33404;BME280;19751;40.274;18.268;2024-03-29T03:46:50;101308.00;;;14.24;100.00
33404;BME280;19751;40.274;18.268;2024-03-29T03:49:16;101302.97;;;14.21;100.00
33404;BME280;19751;40.274;18.268;2024-03-29T03:51:41;101303.38;;;14.18;100.00
33404;BME280;19751;40.274;18.268;2024-03-29T03:54:07;101298.16;;;14.16;100.00
33404;BME280;19751;40.274;18.268;2024-03-29T03:56:33;101299.38;;;14.14;100.00
33404;BME280;19751;40.274;18.268;2024-03-29T03:58:58;101296.25;;;14.10;100.00
33404;BME280;19751;40.274;18.268;2024-03-29T04:01:24;101294.97;;;14.06;100.00
33404;BME280;19751;40.274;18.268;2024-03-29T04:03:49;101297.41;;;13.95;100.00
33404;BME280;19751;40.274;18.268;2024-03-29T04:06:15;101302.75;;;13.88;100.00
33404;BME280;19751;40.274;18.268;2024-03-29T04:08:40;101310.06;;;13.87;100.00
33404;BME280;19751;40.274;18.268;2024-03-29T04:11:06;101319.25;;;13.93;100.00
33404;BME280;19751;40.274;18.268;2024-03-29T04:13:31;101315.97;;;13.98;100.00
33404;BME280;19751;40.274;18.268;2024-03-29T04:16:04;101311.19;;;14.00;100.00
33404;BME280;19751;40.274;18.268;2024-03-29T04:18:29;101303.06;;;14.00;100.00
33404;BME280;19751;40.274;18.268;2024-03-29T04:20:59;101304.34;;;14.04;100.00
33404;BME280;19751;40.274;18.268;2024-03-29T04:23:25;101312.06;;;14.07;100.00
33404;BME280;19751;40.274;18.268;2024-03-29T04:25:54;101312.06;;;14.07;100.00
33404;BME280;19751;40.274;18.268;2024-03-29T04:28:20;101316.22;;;14.09;100.00
33404;BME280;19751;40.274;18.268;2024-03-29T04:30:56;101315.00;;;14.12;100.00
33404;BME280;19751;40.274;18.268;2024-03-29T04:33:23;101320.81;;;14.09;100.00
33404;BME280;19751;40.274;18.268;2024-03-29T04:35:57;101318.09;;;14.09;100.00
33404;BME280;19751;40.274;18.268;2024-03-29T04:38:23;101320.81;;;14.09;100.00
33404;BME280;19751;40.274;18.268;2024-03-29T04:40:51;101315.63;;;14.14;100.00
33404;BME280;19751;40.274;18.268;2024-03-29T04:43:17;101317.97;;;14.17;100.00
33404;BME280;19751;40.274;18.268;2024-03-29T04:45:45;101325.84;;;14.12;100.00
33404;BME280;19751;40.274;18.268;2024-03-29T04:48:12;101337.91;;;14.09;100.00
33404;BME280;19751;40.274;18.268;2024-03-29T04:50:37;101334.75;;;14.06;100.00
33404;BME280;19751;40.274;18.268;2024-03-29T04:53:03;101331.25;;;14.12;100.00
33404;BME280;19751;40.274;18.268;2024-03-29T04:55:28;101331.88;;;14.14;100.00
33404;BME280;19751;40.274;18.268;2024-03-29T04:57:54;101335.88;;;14.18;100.00
33404;BME280;19751;40.274;18.268;2024-03-29T05:00:20;101332.38;;;14.24;100.00
33404;BME280;19751;40.274;18.268;2024-03-29T05:02:45;101341.34;;;14.25;100.00
33404;BME280;19751;40.274;18.268;2024-03-29T05:05:11;101344.13;;;14.31;100.00
33404;BME280;19751;40.274;18.268;2024-03-29T05:07:36;101343.69;;;14.34;100.00
33404;BME280;19751;40.274;18.268;2024-03-29T05:10:02;101353.94;;;14.39;100.00
33404;BME280;19751;40.274;18.268;2024-03-29T05:12:32;101358.97;;;14.42;100.00
33404;BME280;19751;40.274;18.268;2024-03-29T05:14:58;101358.13;;;14.41;100.00
33404;BME280;19751;40.274;18.268;2024-03-29T05:17:23;101353.97;;;14.46;100.00
33404;BME280;19751;40.274;18.268;2024-03-29T05:19:50;101361.53;;;14.50;100.00
33404;BME280;19751;40.274;18.268;2024-03-29T05:22:16;101366.56;;;14.53;100.00
33404;BME280;19751;40.274;18.268;2024-03-29T05:24:41;101360.09;;;14.54;100.00
33404;BME280;19751;40.274;18.268;2024-03-29T05:27:07;101351.13;;;14.54;100.00
33404;BME280;19751;40.274;18.268;2024-03-29T05:29:32;101357.22;;;14.56;100.00
33404;BME280;19751;40.274;18.268;2024-03-29T05:31:58;101365.34;;;14.56;100.00
33404;BME280;19751;40.274;18.268;2024-03-29T05:34:23;101372.88;;;14.60;100.00
33404;BME280;19751;40.274;18.268;2024-03-29T05:36:49;101368.91;;;14.63;100.00
33404;BME280;19751;40.274;18.268;2024-03-29T05:39:15;101365.78;;;14.66;100.00
33404;BME280;19751;40.274;18.268;2024-03-29T05:41:41;101369.78;;;14.70;100.00
33404;BME280;19751;40.274;18.268;2024-03-29T05:44:06;101378.13;;;14.75;100.00
33404;BME280;19751;40.274;18.268;2024-03-29T05:46:32;101380.25;;;14.80;100.00
33404;BME280;19751;40.274;18.268;2024-03-29T05:48:57;101387.78;;;14.84;100.00
33404;BME280;19751;40.274;18.268;2024-03-29T05:51:23;101397.59;;;14.85;100.00
33404;BME280;19751;40.274;18.268;2024-03-29T05:53:48;101400.09;;;14.87;100.00
33404;BME280;19751;40.274;18.268;2024-03-29T05:56:14;101393.69;;;14.95;100.00
33404;BME280;19751;40.274;18.268;2024-03-29T05:58:39;101380.34;;;15.00;100.00
33404;BME280;19751;40.274;18.268;2024-03-29T06:01:05;101382.66;;;15.03;100.00
33404;BME280;19751;40.274;18.268;2024-03-29T06:03:30;101389.53;;;15.05;100.00
33404;BME280;19751;40.274;18.268;2024-03-29T06:05:56;101391.00;;;15.08;100.00
33404;BME280;19751;40.274;18.268;2024-03-29T06:08:22;101385.81;;;15.13;100.00
33404;BME280;19751;40.274;18.268;2024-03-29T06:10:49;101376.03;;;15.19;100.00
33404;BME280;19751;40.274;18.268;2024-03-29T06:13:14;101375.41;;;15.23;100.00
33404;BME280;19751;40.274;18.268;2024-03-29T06:15:55;101377.06;;;15.24;100.00
33404;BME280;19751;40.274;18.268;2024-03-29T06:18:39;101378.13;;;15.30;100.00
33404;BME280;19751;40.274;18.268;2024-03-29T06:21:05;101373.78;;;15.35;100.00
33404;BME280;19751;40.274;18.268;2024-03-29T06:23:30;101360.41;;;15.40;100.00
33404;BME280;19751;40.274;18.268;2024-03-29T06:25:56;101350.19;;;15.49;100.00
33404;BME280;19751;40.274;18.268;2024-03-29T06:28:21;101338.72;;;15.54;100.00
33404;BME280;19751;40.274;18.268;2024-03-29T06:30:47;101352.09;;;15.62;100.00
33404;BME280;19751;40.274;18.268;2024-03-29T06:33:12;101355.69;;;15.69;100.00
33404;BME280;19751;40.274;18.268;2024-03-29T06:35:38;101362.16;;;15.75;100.00
33404;BME280;19751;40.274;18.268;2024-03-29T06:38:03;101359.84;;;15.78;100.00
33404;BME280;19751;40.274;18.268;2024-03-29T06:40:29;101353.16;;;15.87;100.00
33404;BME280;19751;40.274;18.268;2024-03-29T06:42:55;101361.09;;;15.96;100.00
33404;BME280;19751;40.274;18.268;2024-03-29T06:45:25;101372.81;;;16.03;100.00
33404;BME280;19751;40.274;18.268;2024-03-29T06:47:50;101383.88;;;16.08;100.00
33404;BME280;19751;40.274;18.268;2024-03-29T06:50:17;101384.06;;;16.13;100.00
33404;BME280;19751;40.274;18.268;2024-03-29T06:52:43;101370.72;;;16.18;100.00
33404;BME280;19751;40.274;18.268;2024-03-29T06:55:08;101374.47;;;16.24;100.00
33404;BME280;19751;40.274;18.268;2024-03-29T06:57:35;101384.28;;;16.25;100.00
33404;BME280;19751;40.274;18.268;2024-03-29T07:00:01;101391.78;;;16.29;100.00
33404;BME280;19751;40.274;18.268;2024-03-29T07:02:28;101394.09;;;16.32;100.00
33404;BME280;19751;40.274;18.268;2024-03-29T07:04:54;101390.75;;;16.37;100.00
33404;BME280;19751;40.274;18.268;2024-03-29T07:07:19;101379.44;;;16.40;100.00
33404;BME280;19751;40.274;18.268;2024-03-29T07:09:45;101375.25;;;16.44;100.00
33404;BME280;19751;40.274;18.268;2024-03-29T07:12:10;101393.44;;;16.50;100.00
33404;BME280;19751;40.274;18.268;2024-03-29T07:14:36;101394.47;;;16.56;100.00
33404;BME280;19751;40.274;18.268;2024-03-29T07:17:01;101409.50;;;16.65;100.00
33404;BME280;19751;40.274;18.268;2024-03-29T07:19:27;101389.44;;;16.73;100.00
33404;BME280;19751;40.274;18.268;2024-03-29T07:21:53;101386.91;;;16.78;100.00
33404;BME280;19751;40.274;18.268;2024-03-29T07:24:19;101391.69;;;16.82;100.00
33404;BME280;19751;40.274;18.268;2024-03-29T07:26:45;101401.31;;;16.85;100.00
33404;BME280;19751;40.274;18.268;2024-03-29T07:29:11;101410.72;;;16.89;100.00
33404;BME280;19751;40.274;18.268;2024-03-29T07:31:37;101413.41;;;16.96;100.00
33404;BME280;19751;40.274;18.268;2024-03-29T07:34:02;101405.00;;;17.04;100.00
33404;BME280;19751;40.274;18.268;2024-03-29T07:36:28;101404.56;;;17.13;100.00
33404;BME280;19751;40.274;18.268;2024-03-29T07:38:57;101411.66;;;17.21;100.00
33404;BME280;19751;40.274;18.268;2024-03-29T07:41:24;101413.91;;;17.31;100.00
33404;BME280;19751;40.274;18.268;2024-03-29T07:43:56;101407.13;;;17.40;100.00
33404;BME280;19751;40.274;18.268;2024-03-29T07:46:29;101411.72;;;17.46;100.00
33404;BME280;19751;40.274;18.268;2024-03-29T07:48:56;101415.88;;;17.49;100.00
33404;BME280;19751;40.274;18.268;2024-03-29T07:51:21;101413.13;;;17.55;100.00
33404;BME280;19751;40.274;18.268;2024-03-29T07:53:47;101417.47;;;17.63;100.00
33404;BME280;19751;40.274;18.268;2024-03-29T07:56:13;101422.44;;;17.73;100.00
33404;BME280;19751;40.274;18.268;2024-03-29T07:58:38;101433.94;;;17.81;100.00
33404;BME280;19751;40.274;18.268;2024-03-29T08:01:04;101423.81;;;17.88;100.00
33404;BME280;19751;40.274;18.268;2024-03-29T08:03:29;101410.13;;;17.95;100.00
33404;BME280;19751;40.274;18.268;2024-03-29T08:06:00;101414.28;;;18.04;100.00
33404;BME280;19751;40.274;18.268;2024-03-29T08:08:32;101407.91;;;18.10;100.00
33404;BME280;19751;40.274;18.268;2024-03-29T08:10:59;101411.00;;;18.21;100.00
33404;BME280;19751;40.274;18.268;2024-03-29T08:13:26;101415.91;;;18.30;100.00
33404;BME280;19751;40.274;18.268;2024-03-29T08:15:59;101417.53;;;18.38;100.00
33404;BME280;19751;40.274;18.268;2024-03-29T08:18:26;101416.84;;;18.43;100.00
33404;BME280;19751;40.274;18.268;2024-03-29T08:20:52;101417.00;;;18.48;100.00
33404;BME280;19751;40.274;18.268;2024-03-29T08:23:20;101420.50;;;18.55;100.00
33404;BME280;19751;40.274;18.268;2024-03-29T08:25:46;101426.13;;;18.60;100.00
33404;BME280;19751;40.274;18.268;2024-03-29T08:28:11;101427.34;;;18.64;100.00
33404;BME280;19751;40.274;18.268;2024-03-29T08:30:37;101424.16;;;18.67;100.00
33404;BME280;19751;40.274;18.268;2024-03-29T08:33:03;101422.25;;;18.68;100.00
33404;BME280;19751;40.274;18.268;2024-03-29T08:35:33;101424.75;;;18.69;100.00
33404;BME280;19751;40.274;18.268;2024-03-29T08:37:59;101427.91;;;18.73;100.00
33404;BME280;19751;40.274;18.268;2024-03-29T08:40:28;101424.47;;;18.77;100.00
33404;BME280;19751;40.274;18.268;2024-03-29T08:42:59;101415.41;;;18.83;100.00
33404;BME280;19751;40.274;18.268;2024-03-29T08:45:25;101420.56;;;18.92;100.00
33404;BME280;19751;40.274;18.268;2024-03-29T08:47:50;101418.81;;;18.97;100.00
33404;BME280;19751;40.274;18.268;2024-03-29T08:50:16;101420.78;;;19.08;97.91
33404;BME280;19751;40.274;18.268;2024-03-29T08:52:41;101412.25;;;19.17;94.32
33404;BME280;19751;40.274;18.268;2024-03-29T08:55:07;101412.66;;;19.20;93.28
33404;BME280;19751;40.274;18.268;2024-03-29T08:57:33;101405.16;;;19.27;84.40
33404;BME280;19751;40.274;18.268;2024-03-29T08:59:59;101411.00;;;19.31;82.70
33404;BME280;19751;40.274;18.268;2024-03-29T09:02:25;101417.44;;;19.36;79.66
33404;BME280;19751;40.274;18.268;2024-03-29T09:04:50;101416.66;;;19.48;76.60
33404;BME280;19751;40.274;18.268;2024-03-29T09:07:16;101415.75;;;19.54;77.61
33404;BME280;19751;40.274;18.268;2024-03-29T09:09:42;101416.94;;;19.58;79.23
33404;BME280;19751;40.274;18.268;2024-03-29T09:12:10;101426.72;;;19.66;83.23
33404;BME280;19751;40.274;18.268;2024-03-29T09:14:35;101419.03;;;19.74;100.00
33404;BME280;19751;40.274;18.268;2024-03-29T09:17:01;101419.97;;;19.68;100.00
33404;BME280;19751;40.274;18.268;2024-03-29T09:19:29;101419.22;;;19.61;100.00
33404;BME280;19751;40.274;18.268;2024-03-29T09:21:58;101414.06;;;19.53;100.00
33404;BME280;19751;40.274;18.268;2024-03-29T09:24:24;101416.91;;;19.46;100.00
33404;BME280;19751;40.274;18.268;2024-03-29T09:26:51;101406.81;;;19.47;100.00
33404;BME280;19751;40.274;18.268;2024-03-29T09:29:17;101413.34;;;19.46;100.00
33404;BME280;19751;40.274;18.268;2024-03-29T09:31:45;101404.06;;;19.47;100.00
33404;BME280;19751;40.274;18.268;2024-03-29T09:34:11;101412.53;;;19.57;100.00
33404;BME280;19751;40.274;18.268;2024-03-29T09:36:36;101402.63;;;19.63;100.00
33404;BME280;19751;40.274;18.268;2024-03-29T09:39:02;101408.28;;;19.61;100.00
33404;BME280;19751;40.274;18.268;2024-03-29T09:41:30;101405.94;;;19.65;100.00
33404;BME280;19751;40.274;18.268;2024-03-29T09:43:57;101412.22;;;19.65;100.00
33404;BME280;19751;40.274;18.268;2024-03-29T09:46:25;101404.19;;;19.70;100.00
33404;BME280;19751;40.274;18.268;2024-03-29T09:48:53;101409.31;;;19.78;100.00
33404;BME280;19751;40.274;18.268;2024-03-29T09:51:21;101403.50;;;19.86;100.00
33404;BME280;19751;40.274;18.268;2024-03-29T09:53:47;101407.56;;;19.96;100.00
33404;BME280;19751;40.274;18.268;2024-03-29T09:56:14;101402.44;;;19.99;100.00
33404;BME280;19751;40.274;18.268;2024-03-29T09:58:39;101394.00;;;20.01;100.00
33404;BME280;19751;40.274;18.268;2024-03-29T10:01:07;101392.47;;;20.05;100.00
33404;BME280;19751;40.274;18.268;2024-03-29T10:03:38;101387.72;;;20.12;100.00
33404;BME280;19751;40.274;18.268;2024-03-29T10:06:05;101391.66;;;20.16;100.00
33404;BME280;19751;40.274;18.268;2024-03-29T10:08:33;101387.72;;;20.12;100.00
33404;BME280;19751;40.274;18.268;2024-03-29T10:10:59;101383.78;;;20.08;100.00
33404;BME280;19751;40.274;18.268;2024-03-29T10:13:25;101391.38;;;20.06;100.00
33404;BME280;19751;40.274;18.268;2024-03-29T10:15:54;101391.38;;;20.06;100.00
33404;BME280;19751;40.274;18.268;2024-03-29T10:18:24;101390.91;;;20.09;100.00
33404;BME280;19751;40.274;18.268;2024-03-29T10:21:04;101383.91;;;20.13;100.00
33404;BME280;19751;40.274;18.268;2024-03-29T10:23:31;101383.66;;;20.15;100.00
33404;BME280;19751;40.274;18.268;2024-03-29T10:25:57;101391.03;;;20.14;100.00
33404;BME280;19751;40.274;18.268;2024-03-29T10:28:23;101386.88;;;20.11;100.00
33404;BME280;19751;40.274;18.268;2024-03-29T10:30:49;101391.16;;;20.07;100.00
33404;BME280;19751;40.274;18.268;2024-03-29T10:33:16;101396.50;;;20.14;100.00
33404;BME280;19751;40.274;18.268;2024-03-29T10:35:42;101395.44;;;20.15;100.00
33404;BME280;19751;40.274;18.268;2024-03-29T10:38:09;101386.75;;;20.18;100.00
33404;BME280;19751;40.274;18.268;2024-03-29T10:40:40;101389.84;;;20.22;100.00
33404;BME280;19751;40.274;18.268;2024-03-29T10:43:10;101387.72;;;20.24;100.00
33404;BME280;19751;40.274;18.268;2024-03-29T10:45:39;101383.78;;;20.31;100.00
33404;BME280;19751;40.274;18.268;2024-03-29T10:48:06;101373.81;;;20.37;100.00
33404;BME280;19751;40.274;18.268;2024-03-29T10:50:35;101364.25;;;20.40;100.00
33404;BME280;19751;40.274;18.268;2024-03-29T10:53:01;101358.69;;;20.46;100.00
33404;BME280;19751;40.274;18.268;2024-03-29T10:55:33;101356.69;;;20.53;100.00
33404;BME280;19751;40.274;18.268;2024-03-29T10:58:00;101359.16;;;20.55;100.00
33404;BME280;19751;40.274;18.268;2024-03-29T11:00:28;101351.94;;;20.49;100.00
33404;BME280;19751;40.274;18.268;2024-03-29T11:05:35;101357.00;;;20.45;100.00
33404;BME280;19751;40.274;18.268;2024-03-29T11:08:02;101357.50;;;20.42;100.00
33404;BME280;19751;40.274;18.268;2024-03-29T11:10:36;101359.88;;;20.39;100.00
33404;BME280;19751;40.274;18.268;2024-03-29T11:16:12;101354.75;;;20.42;100.00
33404;BME280;19751;40.274;18.268;2024-03-29T11:18:38;101350.22;;;20.48;100.00
33404;BME280;19751;40.274;18.268;2024-03-29T11:21:05;101352.03;;;20.54;100.00
33404;BME280;19751;40.274;18.268;2024-03-29T11:23:33;101347.75;;;20.58;100.00
33404;BME280;19751;40.274;18.268;2024-03-29T11:25:59;101347.97;;;20.56;100.00
33404;BME280;19751;40.274;18.268;2024-03-29T11:28:34;101345.59;;;20.60;100.00
33404;BME280;19751;40.274;18.268;2024-03-29T11:31:07;101347.59;;;20.65;100.00
33404;BME280;19751;40.274;18.268;2024-03-29T11:38:47;101337.47;;;20.65;88.19
33404;BME280;19751;40.274;18.268;2024-03-29T11:41:16;101328.69;;;20.63;87.57
33404;BME280;19751;40.274;18.268;2024-03-29T11:43:42;101332.59;;;20.67;97.30
33404;BME280;19751;40.274;18.268;2024-03-29T11:46:10;101334.59;;;20.72;98.24
33404;BME280;19751;40.274;18.268;2024-03-29T11:48:36;101330.31;;;20.76;99.15
33404;BME280;19751;40.274;18.268;2024-03-29T11:51:04;101328.50;;;20.81;100.00
33404;BME280;19751;40.274;18.268;2024-03-29T11:53:30;101335.75;;;20.88;100.00
33404;BME280;19751;40.274;18.268;2024-03-29T11:56:01;101328.47;;;20.93;98.01
33404;BME280;19751;40.274;18.268;2024-03-29T11:58:28;101326.13;;;20.85;91.44
33404;BME280;19751;40.274;18.268;2024-03-29T12:00:55;101323.63;;;20.83;90.84
33404;BME280;19751;40.274;18.268;2024-03-29T12:03:23;101316.00;;;20.85;90.21
33404;BME280;19751;40.274;18.268;2024-03-29T12:05:50;101304.56;;;20.89;92.56
33404;BME280;19751;40.274;18.268;2024-03-29T12:08:17;101309.56;;;20.92;93.89
33404;BME280;19751;40.274;18.268;2024-03-29T12:10:42;101303.59;;;20.95;89.61
33404;BME280;19751;40.274;18.268;2024-03-29T12:13:09;101301.16;;;20.98;77.11
33404;BME280;19751;40.274;18.268;2024-03-29T12:15:34;101292.00;;;21.04;84.09
33404;BME280;19751;40.274;18.268;2024-03-29T12:18:04;101281.88;;;21.05;73.49
33404;BME280;19751;40.274;18.268;2024-03-29T12:20:34;101285.09;;;21.02;76.09
33404;BME280;19751;40.274;18.268;2024-03-29T12:23:03;101273.06;;;21.03;80.72
33404;BME280;19751;40.274;18.268;2024-03-29T12:25:30;101270.50;;;21.13;77.07
33404;BME280;19751;40.274;18.268;2024-03-29T12:27:57;101266.19;;;21.17;76.01
33404;BME280;19751;40.274;18.268;2024-03-29T12:30:24;101266.28;;;21.22;75.79
33404;BME280;19751;40.274;18.268;2024-03-29T12:33:03;101267.44;;;21.26;75.37
33404;BME280;19751;40.274;18.268;2024-03-29T12:35:29;101266.13;;;21.29;72.44
33404;BME280;19751;40.274;18.268;2024-03-29T12:37:59;101267.22;;;21.28;65.80
33404;BME280;19751;40.274;18.268;2024-03-29T12:40:26;101265.03;;;21.30;65.21